sensor_id;sensor_type;location;lat;lon;timestamp;temperature;humidity
48998;DHT22;34807;51.456;7.244;2023-04-23T00:00:32;13.10;96.10
48998;DHT22;34807;51.456;7.244;2023-04-23T00:02:58;13.00;96.10
48998;DHT22;34807;51.456;7.244;2023-04-23T00:05:26;13.00;96.00
48998;DHT22;34807;51.456;7.244;2023-04-23T00:07:52;13.00;96.10
48998;DHT22;34807;51.456;7.244;2023-04-23T00:10:18;13.00;96.10
48998;DHT22;34807;51.456;7.244;2023-04-23T00:12:43;13.00;96.10
48998;DHT22;34807;51.456;7.244;2023-04-23T00:15:10;12.90;96.10
48998;DHT22;34807;51.456;7.244;2023-04-23T00:17:35;12.90;96.10
48998;DHT22;34807;51.456;7.244;2023-04-23T00:20:01;12.90;96.10
48998;DHT22;34807;51.456;7.244;2023-04-23T00:22:27;12.90;96.20
48998;DHT22;34807;51.456;7.244;2023-04-23T00:24:52;12.90;96.20
48998;DHT22;34807;51.456;7.244;2023-04-23T00:27:18;12.80;96.10
48998;DHT22;34807;51.456;7.244;2023-04-23T00:29:45;12.80;96.20
48998;DHT22;34807;51.456;7.244;2023-04-23T00:32:11;12.80;96.20
48998;DHT22;34807;51.456;7.244;2023-04-23T00:34:36;12.80;96.30
48998;DHT22;34807;51.456;7.244;2023-04-23T00:37:02;12.80;96.30
48998;DHT22;34807;51.456;7.244;2023-04-23T00:39:31;12.80;96.30
48998;DHT22;34807;51.456;7.244;2023-04-23T00:41:56;12.70;96.30
48998;DHT22;34807;51.456;7.244;2023-04-23T00:44:24;12.70;96.30
48998;DHT22;34807;51.456;7.244;2023-04-23T00:46:50;12.70;96.30
48998;DHT22;34807;51.456;7.244;2023-04-23T00:49:16;12.70;96.30
48998;DHT22;34807;51.456;7.244;2023-04-23T00:51:43;12.60;96.30
48998;DHT22;34807;51.456;7.244;2023-04-23T00:54:08;12.70;96.40
48998;DHT22;34807;51.456;7.244;2023-04-23T00:56:34;12.60;96.40
48998;DHT22;34807;51.456;7.244;2023-04-23T00:58:59;12.60;96.40
48998;DHT22;34807;51.456;7.244;2023-04-23T01:01:27;12.60;96.40
48998;DHT22;34807;51.456;7.244;2023-04-23T01:03:54;12.60;96.30
48998;DHT22;34807;51.456;7.244;2023-04-23T01:06:20;12.60;96.40
48998;DHT22;34807;51.456;7.244;2023-04-23T01:08:46;12.60;96.40
48998;DHT22;34807;51.456;7.244;2023-04-23T01:11:12;12.60;96.40
48998;DHT22;34807;51.456;7.244;2023-04-23T01:13:38;12.50;96.30
48998;DHT22;34807;51.456;7.244;2023-04-23T01:16:04;12.50;96.40
48998;DHT22;34807;51.456;7.244;2023-04-23T01:18:29;12.50;96.40
48998;DHT22;34807;51.456;7.244;2023-04-23T01:20:55;12.50;96.40
48998;DHT22;34807;51.456;7.244;2023-04-23T01:23:20;12.50;96.70
48998;DHT22;34807;51.456;7.244;2023-04-23T01:25:46;12.50;96.40
48998;DHT22;34807;51.456;7.244;2023-04-23T01:28:12;12.40;96.40
48998;DHT22;34807;51.456;7.244;2023-04-23T01:30:39;12.40;96.40
48998;DHT22;34807;51.456;7.244;2023-04-23T01:33:05;12.40;96.50
48998;DHT22;34807;51.456;7.244;2023-04-23T01:35:31;12.40;96.40
48998;DHT22;34807;51.456;7.244;2023-04-23T01:37:58;12.40;96.40
48998;DHT22;34807;51.456;7.244;2023-04-23T01:40:24;12.40;96.40
48998;DHT22;34807;51.456;7.244;2023-04-23T01:42:49;12.30;96.40
48998;DHT22;34807;51.456;7.244;2023-04-23T01:45:15;12.30;96.40
48998;DHT22;34807;51.456;7.244;2023-04-23T01:47:44;12.30;96.40
48998;DHT22;34807;51.456;7.244;2023-04-23T01:50:10;12.30;96.50
48998;DHT22;34807;51.456;7.244;2023-04-23T01:52:35;12.30;96.50
48998;DHT22;34807;51.456;7.244;2023-04-23T01:55:01;12.30;96.60
48998;DHT22;34807;51.456;7.244;2023-04-23T01:57:26;12.30;96.60
48998;DHT22;34807;51.456;7.244;2023-04-23T02:00:00;12.20;96.60
48998;DHT22;34807;51.456;7.244;2023-04-23T02:02:28;12.20;96.60
48998;DHT22;34807;51.456;7.244;2023-04-23T02:04:53;12.20;96.60
48998;DHT22;34807;51.456;7.244;2023-04-23T02:07:19;12.20;96.60
48998;DHT22;34807;51.456;7.244;2023-04-23T02:09:45;12.20;96.70
48998;DHT22;34807;51.456;7.244;2023-04-23T02:12:10;12.10;96.60
48998;DHT22;34807;51.456;7.244;2023-04-23T02:14:36;12.10;96.70
48998;DHT22;34807;51.456;7.244;2023-04-23T02:17:01;12.10;96.60
48998;DHT22;34807;51.456;7.244;2023-04-23T02:19:28;12.10;96.70
48998;DHT22;34807;51.456;7.244;2023-04-23T02:21:55;12.00;96.60
48998;DHT22;34807;51.456;7.244;2023-04-23T02:24:21;12.10;96.70
48998;DHT22;34807;51.456;7.244;2023-04-23T02:26:46;12.00;96.70
48998;DHT22;34807;51.456;7.244;2023-04-23T02:29:13;12.00;96.70
48998;DHT22;34807;51.456;7.244;2023-04-23T02:31:39;12.00;96.60
48998;DHT22;34807;51.456;7.244;2023-04-23T02:34:04;12.00;96.60
48998;DHT22;34807;51.456;7.244;2023-04-23T02:36:30;12.00;96.70
48998;DHT22;34807;51.456;7.244;2023-04-23T02:38:56;11.90;96.60
48998;DHT22;34807;51.456;7.244;2023-04-23T02:41:22;11.90;96.60
48998;DHT22;34807;51.456;7.244;2023-04-23T02:43:47;11.90;96.70
48998;DHT22;34807;51.456;7.244;2023-04-23T02:46:13;11.90;96.70
48998;DHT22;34807;51.456;7.244;2023-04-23T02:48:40;11.90;96.60
48998;DHT22;34807;51.456;7.244;2023-04-23T02:51:06;11.90;96.70
48998;DHT22;34807;51.456;7.244;2023-04-23T02:53:32;11.80;96.70
48998;DHT22;34807;51.456;7.244;2023-04-23T02:55:58;11.80;96.60
48998;DHT22;34807;51.456;7.244;2023-04-23T02:58:23;11.80;96.70
48998;DHT22;34807;51.456;7.244;2023-04-23T03:00:49;11.80;96.70
48998;DHT22;34807;51.456;7.244;2023-04-23T03:03:14;11.80;96.70
48998;DHT22;34807;51.456;7.244;2023-04-23T03:05:40;11.70;96.60
48998;DHT22;34807;51.456;7.244;2023-04-23T03:08:05;11.70;96.70
48998;DHT22;34807;51.456;7.244;2023-04-23T03:10:31;11.70;96.70
48998;DHT22;34807;51.456;7.244;2023-04-23T03:12:56;11.70;96.80
48998;DHT22;34807;51.456;7.244;2023-04-23T03:15:22;11.70;96.80
48998;DHT22;34807;51.456;7.244;2023-04-23T03:17:47;11.60;96.70
48998;DHT22;34807;51.456;7.244;2023-04-23T03:20:13;11.60;96.80
48998;DHT22;34807;51.456;7.244;2023-04-23T03:22:38;11.60;96.70
48998;DHT22;34807;51.456;7.244;2023-04-23T03:25:04;11.60;96.60
48998;DHT22;34807;51.456;7.244;2023-04-23T03:27:30;11.60;96.50
48998;DHT22;34807;51.456;7.244;2023-04-23T03:29:56;11.60;96.60
48998;DHT22;34807;51.456;7.244;2023-04-23T03:32:22;11.60;96.60
48998;DHT22;34807;51.456;7.244;2023-04-23T03:34:47;11.60;96.60
48998;DHT22;34807;51.456;7.244;2023-04-23T03:37:13;11.60;96.70
48998;DHT22;34807;51.456;7.244;2023-04-23T03:39:38;11.50;96.70
48998;DHT22;34807;51.456;7.244;2023-04-23T03:42:04;11.50;96.70
48998;DHT22;34807;51.456;7.244;2023-04-23T03:44:30;11.50;96.80
48998;DHT22;34807;51.456;7.244;2023-04-23T03:46:55;11.50;96.80
48998;DHT22;34807;51.456;7.244;2023-04-23T03:49:21;11.50;96.70
48998;DHT22;34807;51.456;7.244;2023-04-23T03:51:47;11.50;96.70
48998;DHT22;34807;51.456;7.244;2023-04-23T03:54:12;11.40;96.70
48998;DHT22;34807;51.456;7.244;2023-04-23T03:56:38;11.40;96.80
48998;DHT22;34807;51.456;7.244;2023-04-23T03:59:04;11.40;96.70
48998;DHT22;34807;51.456;7.244;2023-04-23T04:01:29;11.40;96.70
48998;DHT22;34807;51.456;7.244;2023-04-23T04:03:56;11.40;96.70
48998;DHT22;34807;51.456;7.244;2023-04-23T04:06:22;11.40;96.70
48998;DHT22;34807;51.456;7.244;2023-04-23T04:08:47;11.40;96.70
48998;DHT22;34807;51.456;7.244;2023-04-23T04:11:13;11.40;96.70
48998;DHT22;34807;51.456;7.244;2023-04-23T04:13:38;11.40;96.80
48998;DHT22;34807;51.456;7.244;2023-04-23T04:16:04;11.40;96.70
48998;DHT22;34807;51.456;7.244;2023-04-23T04:18:29;11.40;96.70
48998;DHT22;34807;51.456;7.244;2023-04-23T04:20:55;11.40;96.80
48998;DHT22;34807;51.456;7.244;2023-04-23T04:23:20;11.30;96.60
48998;DHT22;34807;51.456;7.244;2023-04-23T04:25:46;11.30;96.60
48998;DHT22;34807;51.456;7.244;2023-04-23T04:28:12;11.30;96.70
48998;DHT22;34807;51.456;7.244;2023-04-23T04:30:37;11.30;96.70
48998;DHT22;34807;51.456;7.244;2023-04-23T04:33:03;11.30;96.70
48998;DHT22;34807;51.456;7.244;2023-04-23T04:35:29;11.30;96.70
48998;DHT22;34807;51.456;7.244;2023-04-23T04:37:54;11.30;96.70
48998;DHT22;34807;51.456;7.244;2023-04-23T04:40:20;11.30;96.70
48998;DHT22;34807;51.456;7.244;2023-04-23T04:42:45;11.30;96.70
48998;DHT22;34807;51.456;7.244;2023-04-23T04:45:11;11.30;96.70
48998;DHT22;34807;51.456;7.244;2023-04-23T04:47:37;11.30;96.70
48998;DHT22;34807;51.456;7.244;2023-04-23T04:50:03;11.20;96.70
48998;DHT22;34807;51.456;7.244;2023-04-23T04:52:28;11.20;96.70
48998;DHT22;34807;51.456;7.244;2023-04-23T04:54:54;11.20;96.70
48998;DHT22;34807;51.456;7.244;2023-04-23T04:57:19;11.20;96.70
48998;DHT22;34807;51.456;7.244;2023-04-23T04:59:47;11.20;96.70
48998;DHT22;34807;51.456;7.244;2023-04-23T05:02:12;11.20;96.70
48998;DHT22;34807;51.456;7.244;2023-04-23T05:04:38;11.20;96.80
48998;DHT22;34807;51.456;7.244;2023-04-23T05:07:04;11.20;96.70
48998;DHT22;34807;51.456;7.244;2023-04-23T05:09:29;11.20;96.70
48998;DHT22;34807;51.456;7.244;2023-04-23T05:11:55;11.20;96.60
48998;DHT22;34807;51.456;7.244;2023-04-23T05:14:21;11.20;96.70
48998;DHT22;34807;51.456;7.244;2023-04-23T05:16:46;11.20;96.70
48998;DHT22;34807;51.456;7.244;2023-04-23T05:19:12;11.20;96.70
48998;DHT22;34807;51.456;7.244;2023-04-23T05:21:38;11.10;96.60
48998;DHT22;34807;51.456;7.244;2023-04-23T05:24:03;11.10;96.60
48998;DHT22;34807;51.456;7.244;2023-04-23T05:26:29;11.10;96.70
48998;DHT22;34807;51.456;7.244;2023-04-23T05:28:54;11.10;96.50
48998;DHT22;34807;51.456;7.244;2023-04-23T05:31:20;11.10;96.80
48998;DHT22;34807;51.456;7.244;2023-04-23T05:33:46;11.10;96.50
48998;DHT22;34807;51.456;7.244;2023-04-23T05:36:11;11.20;96.40
48998;DHT22;34807;51.456;7.244;2023-04-23T05:38:37;11.10;96.30
48998;DHT22;34807;51.456;7.244;2023-04-23T05:41:02;11.20;96.20
48998;DHT22;34807;51.456;7.244;2023-04-23T05:43:28;11.20;96.20
48998;DHT22;34807;51.456;7.244;2023-04-23T05:45:54;11.20;96.10
48998;DHT22;34807;51.456;7.244;2023-04-23T05:48:19;11.20;96.10
48998;DHT22;34807;51.456;7.244;2023-04-23T05:50:45;11.20;96.10
48998;DHT22;34807;51.456;7.244;2023-04-23T05:53:10;11.20;96.00
48998;DHT22;34807;51.456;7.244;2023-04-23T05:55:36;11.20;95.90
48998;DHT22;34807;51.456;7.244;2023-04-23T05:58:01;11.30;95.80
48998;DHT22;34807;51.456;7.244;2023-04-23T06:00:27;11.30;95.60
48998;DHT22;34807;51.456;7.244;2023-04-23T06:02:53;11.30;95.60
48998;DHT22;34807;51.456;7.244;2023-04-23T06:05:18;11.30;95.70
48998;DHT22;34807;51.456;7.244;2023-04-23T06:07:44;11.40;95.80
48998;DHT22;34807;51.456;7.244;2023-04-23T06:10:09;11.40;95.80
48998;DHT22;34807;51.456;7.244;2023-04-23T06:12:35;11.40;95.70
48998;DHT22;34807;51.456;7.244;2023-04-23T06:15:07;11.40;95.80
48998;DHT22;34807;51.456;7.244;2023-04-23T06:17:33;11.40;95.80
48998;DHT22;34807;51.456;7.244;2023-04-23T06:19:59;11.50;95.70
48998;DHT22;34807;51.456;7.244;2023-04-23T06:22:24;11.50;95.80
48998;DHT22;34807;51.456;7.244;2023-04-23T06:24:50;11.50;95.70
48998;DHT22;34807;51.456;7.244;2023-04-23T06:27:15;11.50;95.60
48998;DHT22;34807;51.456;7.244;2023-04-23T06:29:41;11.50;95.70
48998;DHT22;34807;51.456;7.244;2023-04-23T06:32:06;11.60;95.60
48998;DHT22;34807;51.456;7.244;2023-04-23T06:34:32;11.60;95.60
48998;DHT22;34807;51.456;7.244;2023-04-23T06:36:57;11.60;95.60
48998;DHT22;34807;51.456;7.244;2023-04-23T06:39:23;11.60;95.60
48998;DHT22;34807;51.456;7.244;2023-04-23T06:41:48;11.70;95.50
48998;DHT22;34807;51.456;7.244;2023-04-23T06:44:14;11.70;95.50
48998;DHT22;34807;51.456;7.244;2023-04-23T06:46:40;11.70;95.50
48998;DHT22;34807;51.456;7.244;2023-04-23T06:49:06;11.80;95.50
48998;DHT22;34807;51.456;7.244;2023-04-23T06:51:31;11.80;95.50
48998;DHT22;34807;51.456;7.244;2023-04-23T06:53:56;11.80;95.50
48998;DHT22;34807;51.456;7.244;2023-04-23T06:56:23;11.90;95.40
48998;DHT22;34807;51.456;7.244;2023-04-23T06:58:48;11.90;95.40
48998;DHT22;34807;51.456;7.244;2023-04-23T07:01:14;12.00;95.40
48998;DHT22;34807;51.456;7.244;2023-04-23T07:03:39;12.00;95.40
48998;DHT22;34807;51.456;7.244;2023-04-23T07:06:09;12.00;95.30
48998;DHT22;34807;51.456;7.244;2023-04-23T07:08:34;12.10;95.40
48998;DHT22;34807;51.456;7.244;2023-04-23T07:11:00;12.10;95.30
48998;DHT22;34807;51.456;7.244;2023-04-23T07:13:26;12.10;95.40
48998;DHT22;34807;51.456;7.244;2023-04-23T07:15:51;12.10;95.20
48998;DHT22;34807;51.456;7.244;2023-04-23T07:18:17;12.20;95.20
48998;DHT22;34807;51.456;7.244;2023-04-23T07:20:43;12.20;95.10
48998;DHT22;34807;51.456;7.244;2023-04-23T07:23:08;12.30;95.00
48998;DHT22;34807;51.456;7.244;2023-04-23T07:25:34;12.30;95.10
48998;DHT22;34807;51.456;7.244;2023-04-23T07:28:00;12.30;95.10
48998;DHT22;34807;51.456;7.244;2023-04-23T07:30:26;12.40;95.00
48998;DHT22;34807;51.456;7.244;2023-04-23T07:32:52;12.40;95.20
48998;DHT22;34807;51.456;7.244;2023-04-23T07:35:17;12.40;95.10
48998;DHT22;34807;51.456;7.244;2023-04-23T07:37:43;12.50;95.10
48998;DHT22;34807;51.456;7.244;2023-04-23T07:40:08;12.50;95.00
48998;DHT22;34807;51.456;7.244;2023-04-23T07:42:34;12.50;95.00
48998;DHT22;34807;51.456;7.244;2023-04-23T07:45:00;12.60;95.00
48998;DHT22;34807;51.456;7.244;2023-04-23T07:47:25;12.60;94.90
48998;DHT22;34807;51.456;7.244;2023-04-23T07:49:51;12.60;94.90
48998;DHT22;34807;51.456;7.244;2023-04-23T07:52:16;12.60;94.90
48998;DHT22;34807;51.456;7.244;2023-04-23T07:54:42;12.70;94.90
48998;DHT22;34807;51.456;7.244;2023-04-23T07:57:07;12.70;94.90
48998;DHT22;34807;51.456;7.244;2023-04-23T07:59:34;12.70;94.70
48998;DHT22;34807;51.456;7.244;2023-04-23T08:02:00;12.80;94.70
48998;DHT22;34807;51.456;7.244;2023-04-23T08:04:25;12.80;94.50
48998;DHT22;34807;51.456;7.244;2023-04-23T08:06:51;12.80;94.60
48998;DHT22;34807;51.456;7.244;2023-04-23T08:09:16;12.90;94.60
48998;DHT22;34807;51.456;7.244;2023-04-23T08:11:42;12.90;94.60
48998;DHT22;34807;51.456;7.244;2023-04-23T08:14:07;12.90;94.50
48998;DHT22;34807;51.456;7.244;2023-04-23T08:16:33;12.90;94.40
48998;DHT22;34807;51.456;7.244;2023-04-23T08:18:58;13.00;94.40
48998;DHT22;34807;51.456;7.244;2023-04-23T08:21:24;13.00;94.50
48998;DHT22;34807;51.456;7.244;2023-04-23T08:23:51;13.00;94.40
48998;DHT22;34807;51.456;7.244;2023-04-23T08:26:16;13.10;94.40
48998;DHT22;34807;51.456;7.244;2023-04-23T08:28:42;13.10;94.30
48998;DHT22;34807;51.456;7.244;2023-04-23T08:31:08;13.10;94.30
48998;DHT22;34807;51.456;7.244;2023-04-23T08:33:33;13.20;94.30
48998;DHT22;34807;51.456;7.244;2023-04-23T08:35:59;13.30;94.20
48998;DHT22;34807;51.456;7.244;2023-04-23T08:38:24;13.20;94.40
48998;DHT22;34807;51.456;7.244;2023-04-23T08:40:51;13.30;94.20
48998;DHT22;34807;51.456;7.244;2023-04-23T08:43:18;13.40;94.00
48998;DHT22;34807;51.456;7.244;2023-04-23T08:45:47;13.40;93.90
48998;DHT22;34807;51.456;7.244;2023-04-23T08:48:13;13.50;93.90
48998;DHT22;34807;51.456;7.244;2023-04-23T08:50:41;13.50;93.90
48998;DHT22;34807;51.456;7.244;2023-04-23T08:53:07;13.50;93.90
48998;DHT22;34807;51.456;7.244;2023-04-23T08:55:33;13.60;93.80
48998;DHT22;34807;51.456;7.244;2023-04-23T08:57:58;13.60;93.90
48998;DHT22;34807;51.456;7.244;2023-04-23T09:00:25;13.70;93.70
48998;DHT22;34807;51.456;7.244;2023-04-23T09:02:51;13.80;93.60
48998;DHT22;34807;51.456;7.244;2023-04-23T09:05:16;13.80;93.60
48998;DHT22;34807;51.456;7.244;2023-04-23T09:07:42;13.90;93.50
48998;DHT22;34807;51.456;7.244;2023-04-23T09:10:08;13.90;93.50
48998;DHT22;34807;51.456;7.244;2023-04-23T09:12:36;14.00;93.40
48998;DHT22;34807;51.456;7.244;2023-04-23T09:15:02;14.00;93.30
48998;DHT22;34807;51.456;7.244;2023-04-23T09:17:34;14.10;93.50
48998;DHT22;34807;51.456;7.244;2023-04-23T09:20:00;14.10;93.50
48998;DHT22;34807;51.456;7.244;2023-04-23T09:22:39;14.20;93.40
48998;DHT22;34807;51.456;7.244;2023-04-23T09:25:08;14.30;93.60
48998;DHT22;34807;51.456;7.244;2023-04-23T09:27:34;14.30;93.50
48998;DHT22;34807;51.456;7.244;2023-04-23T09:30:10;14.40;93.40
48998;DHT22;34807;51.456;7.244;2023-04-23T09:32:37;14.60;93.30
48998;DHT22;34807;51.456;7.244;2023-04-23T09:35:06;14.60;93.30
48998;DHT22;34807;51.456;7.244;2023-04-23T09:37:32;14.60;93.30
48998;DHT22;34807;51.456;7.244;2023-04-23T09:39:58;14.70;93.30
48998;DHT22;34807;51.456;7.244;2023-04-23T09:42:25;14.80;93.20
48998;DHT22;34807;51.456;7.244;2023-04-23T09:45:24;14.80;93.10
48998;DHT22;34807;51.456;7.244;2023-04-23T09:47:53;14.90;93.20
48998;DHT22;34807;51.456;7.244;2023-04-23T09:50:19;15.00;93.10
48998;DHT22;34807;51.456;7.244;2023-04-23T09:52:44;15.00;92.90
48998;DHT22;34807;51.456;7.244;2023-04-23T09:55:10;15.00;93.00
48998;DHT22;34807;51.456;7.244;2023-04-23T09:57:36;15.10;93.00
48998;DHT22;34807;51.456;7.244;2023-04-23T10:00:14;15.10;92.80
48998;DHT22;34807;51.456;7.244;2023-04-23T10:02:47;15.20;92.80
48998;DHT22;34807;51.456;7.244;2023-04-23T10:05:16;15.30;92.60
48998;DHT22;34807;51.456;7.244;2023-04-23T10:07:45;15.30;92.50
48998;DHT22;34807;51.456;7.244;2023-04-23T10:10:17;15.40;92.50
48998;DHT22;34807;51.456;7.244;2023-04-23T10:12:42;15.40;92.60
48998;DHT22;34807;51.456;7.244;2023-04-23T10:15:08;15.40;92.50
48998;DHT22;34807;51.456;7.244;2023-04-23T10:17:38;15.50;92.40
48998;DHT22;34807;51.456;7.244;2023-04-23T10:20:04;15.50;92.40
48998;DHT22;34807;51.456;7.244;2023-04-23T10:22:32;15.60;92.30
48998;DHT22;34807;51.456;7.244;2023-04-23T10:24:58;15.60;92.40
48998;DHT22;34807;51.456;7.244;2023-04-23T10:27:28;15.60;92.40
48998;DHT22;34807;51.456;7.244;2023-04-23T10:29:56;15.60;92.30
48998;DHT22;34807;51.456;7.244;2023-04-23T10:32:21;15.60;92.40
48998;DHT22;34807;51.456;7.244;2023-04-23T10:34:47;15.60;92.40
48998;DHT22;34807;51.456;7.244;2023-04-23T10:37:13;15.60;92.40
48998;DHT22;34807;51.456;7.244;2023-04-23T10:39:42;15.70;92.30
48998;DHT22;34807;51.456;7.244;2023-04-23T10:42:07;15.80;92.20
48998;DHT22;34807;51.456;7.244;2023-04-23T10:44:35;15.80;92.20
48998;DHT22;34807;51.456;7.244;2023-04-23T10:47:00;15.90;92.20
48998;DHT22;34807;51.456;7.244;2023-04-23T10:49:30;15.90;92.00
48998;DHT22;34807;51.456;7.244;2023-04-23T10:52:00;16.00;92.00
48998;DHT22;34807;51.456;7.244;2023-04-23T10:54:30;16.00;91.70
48998;DHT22;34807;51.456;7.244;2023-04-23T10:56:59;16.10;92.20
48998;DHT22;34807;51.456;7.244;2023-04-23T10:59:26;16.20;91.80
48998;DHT22;34807;51.456;7.244;2023-04-23T11:01:54;16.20;91.80
48998;DHT22;34807;51.456;7.244;2023-04-23T11:04:27;16.30;91.70
48998;DHT22;34807;51.456;7.244;2023-04-23T11:06:57;16.40;91.60
48998;DHT22;34807;51.456;7.244;2023-04-23T11:09:42;16.40;91.50
48998;DHT22;34807;51.456;7.244;2023-04-23T11:15:10;16.50;91.50
48998;DHT22;34807;51.456;7.244;2023-04-23T11:22:41;16.50;91.40
48998;DHT22;34807;51.456;7.244;2023-04-23T11:25:07;16.50;91.40
48998;DHT22;34807;51.456;7.244;2023-04-23T11:27:33;16.50;91.40
48998;DHT22;34807;51.456;7.244;2023-04-23T11:30:00;16.50;91.30
48998;DHT22;34807;51.456;7.244;2023-04-23T11:32:26;16.60;91.50
48998;DHT22;34807;51.456;7.244;2023-04-23T11:34:52;16.60;91.50
48998;DHT22;34807;51.456;7.244;2023-04-23T11:37:18;16.70;91.40
48998;DHT22;34807;51.456;7.244;2023-04-23T11:39:44;16.70;91.40
48998;DHT22;34807;51.456;7.244;2023-04-23T11:42:10;16.80;91.40
48998;DHT22;34807;51.456;7.244;2023-04-23T11:44:39;16.90;91.30
48998;DHT22;34807;51.456;7.244;2023-04-23T11:47:08;17.00;91.30
48998;DHT22;34807;51.456;7.244;2023-04-23T11:49:37;17.10;91.00
48998;DHT22;34807;51.456;7.244;2023-04-23T11:52:03;17.30;90.60
48998;DHT22;34807;51.456;7.244;2023-04-23T11:54:28;17.30;90.80
48998;DHT22;34807;51.456;7.244;2023-04-23T11:56:55;17.40;90.50
48998;DHT22;34807;51.456;7.244;2023-04-23T11:59:20;17.50;90.50
48998;DHT22;34807;51.456;7.244;2023-04-23T12:01:47;17.40;90.50
48998;DHT22;34807;51.456;7.244;2023-04-23T12:04:20;17.40;90.10
48998;DHT22;34807;51.456;7.244;2023-04-23T12:06:46;17.40;90.80
48998;DHT22;34807;51.456;7.244;2023-04-23T12:09:13;17.40;90.90
48998;DHT22;34807;51.456;7.244;2023-04-23T12:11:39;17.30;91.00
48998;DHT22;34807;51.456;7.244;2023-04-23T12:14:05;17.30;91.20
48998;DHT22;34807;51.456;7.244;2023-04-23T12:16:37;17.20;91.40
48998;DHT22;34807;51.456;7.244;2023-04-23T12:19:03;17.20;91.40
48998;DHT22;34807;51.456;7.244;2023-04-23T12:21:28;17.30;91.40
48998;DHT22;34807;51.456;7.244;2023-04-23T12:23:54;17.30;91.30
48998;DHT22;34807;51.456;7.244;2023-04-23T12:26:20;17.40;91.20
48998;DHT22;34807;51.456;7.244;2023-04-23T12:31:17;17.60;90.70
48998;DHT22;34807;51.456;7.244;2023-04-23T12:33:43;17.60;90.60
48998;DHT22;34807;51.456;7.244;2023-04-23T12:36:10;17.70;90.40
48998;DHT22;34807;51.456;7.244;2023-04-23T12:38:35;17.80;90.30
48998;DHT22;34807;51.456;7.244;2023-04-23T12:41:01;17.80;90.00
48998;DHT22;34807;51.456;7.244;2023-04-23T12:43:27;17.90;90.20
48998;DHT22;34807;51.456;7.244;2023-04-23T12:45:55;18.00;90.10
48998;DHT22;34807;51.456;7.244;2023-04-23T12:48:21;18.10;90.10
48998;DHT22;34807;51.456;7.244;2023-04-23T12:50:47;18.10;90.00
48998;DHT22;34807;51.456;7.244;2023-04-23T12:53:12;18.10;89.80
48998;DHT22;34807;51.456;7.244;2023-04-23T12:55:38;18.10;89.50
48998;DHT22;34807;51.456;7.244;2023-04-23T12:58:04;18.20;88.50
48998;DHT22;34807;51.456;7.244;2023-04-23T13:00:29;18.30;89.30
48998;DHT22;34807;51.456;7.244;2023-04-23T13:02:55;18.40;88.80
48998;DHT22;34807;51.456;7.244;2023-04-23T13:05:21;18.40;88.30
48998;DHT22;34807;51.456;7.244;2023-04-23T13:07:46;18.40;89.20
48998;DHT22;34807;51.456;7.244;2023-04-23T13:10:12;18.40;89.40
48998;DHT22;34807;51.456;7.244;2023-04-23T13:12:37;18.40;90.00
48998;DHT22;34807;51.456;7.244;2023-04-23T13:15:03;18.40;89.80
48998;DHT22;34807;51.456;7.244;2023-04-23T13:17:29;18.40;89.70
48998;DHT22;34807;51.456;7.244;2023-04-23T13:19:56;18.50;89.60
48998;DHT22;34807;51.456;7.244;2023-04-23T13:22:22;18.50;89.60
48998;DHT22;34807;51.456;7.244;2023-04-23T13:24:52;18.50;89.50
48998;DHT22;34807;51.456;7.244;2023-04-23T13:27:18;18.60;89.40
48998;DHT22;34807;51.456;7.244;2023-04-23T13:29:43;18.50;89.60
48998;DHT22;34807;51.456;7.244;2023-04-23T13:32:09;18.50;89.90
48998;DHT22;34807;51.456;7.244;2023-04-23T13:34:34;18.50;88.10
48998;DHT22;34807;51.456;7.244;2023-04-23T13:37:01;18.60;90.00
48998;DHT22;34807;51.456;7.244;2023-04-23T13:39:30;18.50;89.90
48998;DHT22;34807;51.456;7.244;2023-04-23T13:41:55;18.50;89.50
48998;DHT22;34807;51.456;7.244;2023-04-23T13:44:21;18.60;89.60
48998;DHT22;34807;51.456;7.244;2023-04-23T13:46:46;18.70;89.40
48998;DHT22;34807;51.456;7.244;2023-04-23T13:49:12;18.70;89.10
48998;DHT22;34807;51.456;7.244;2023-04-23T13:51:38;18.70;88.20
48998;DHT22;34807;51.456;7.244;2023-04-23T13:54:04;18.80;88.10
48998;DHT22;34807;51.456;7.244;2023-04-23T13:56:30;18.90;87.20
48998;DHT22;34807;51.456;7.244;2023-04-23T13:58:56;18.90;87.60
48998;DHT22;34807;51.456;7.244;2023-04-23T14:01:26;18.90;87.70
48998;DHT22;34807;51.456;7.244;2023-04-23T14:03:52;18.90;88.20
48998;DHT22;34807;51.456;7.244;2023-04-23T14:06:17;18.90;87.10
48998;DHT22;34807;51.456;7.244;2023-04-23T14:08:43;19.00;87.10
48998;DHT22;34807;51.456;7.244;2023-04-23T14:11:09;19.00;87.60
48998;DHT22;34807;51.456;7.244;2023-04-23T14:13:35;19.00;87.10
48998;DHT22;34807;51.456;7.244;2023-04-23T14:16:00;19.10;86.80
48998;DHT22;34807;51.456;7.244;2023-04-23T14:18:26;19.10;86.50
48998;DHT22;34807;51.456;7.244;2023-04-23T14:20:52;19.20;85.60
48998;DHT22;34807;51.456;7.244;2023-04-23T14:25:47;19.20;83.40
48998;DHT22;34807;51.456;7.244;2023-04-23T14:28:26;19.20;85.60
48998;DHT22;34807;51.456;7.244;2023-04-23T14:30:53;19.20;85.50
48998;DHT22;34807;51.456;7.244;2023-04-23T14:33:19;19.20;84.50
48998;DHT22;34807;51.456;7.244;2023-04-23T14:35:45;19.20;83.80
48998;DHT22;34807;51.456;7.244;2023-04-23T14:38:11;19.20;85.00
48998;DHT22;34807;51.456;7.244;2023-04-23T14:40:37;19.20;83.40
48998;DHT22;34807;51.456;7.244;2023-04-23T14:43:02;19.20;85.50
48998;DHT22;34807;51.456;7.244;2023-04-23T14:45:28;19.20;85.60
48998;DHT22;34807;51.456;7.244;2023-04-23T14:47:55;19.20;84.60
48998;DHT22;34807;51.456;7.244;2023-04-23T14:50:21;19.10;86.10
48998;DHT22;34807;51.456;7.244;2023-04-23T14:52:47;19.10;86.30
48998;DHT22;34807;51.456;7.244;2023-04-23T14:55:13;19.00;86.60
48998;DHT22;34807;51.456;7.244;2023-04-23T14:57:38;19.00;86.40
48998;DHT22;34807;51.456;7.244;2023-04-23T15:00:04;18.90;85.80
48998;DHT22;34807;51.456;7.244;2023-04-23T15:02:30;18.90;87.20
48998;DHT22;34807;51.456;7.244;2023-04-23T15:04:56;18.80;87.50
48998;DHT22;34807;51.456;7.244;2023-04-23T15:07:22;18.80;86.20
48998;DHT22;34807;51.456;7.244;2023-04-23T15:09:47;18.70;87.60
48998;DHT22;34807;51.456;7.244;2023-04-23T15:15:15;18.60;88.20
48998;DHT22;34807;51.456;7.244;2023-04-23T15:17:44;18.60;88.20
48998;DHT22;34807;51.456;7.244;2023-04-23T15:20:10;18.50;87.40
48998;DHT22;34807;51.456;7.244;2023-04-23T15:22:36;18.50;88.70
48998;DHT22;34807;51.456;7.244;2023-04-23T15:25:01;18.50;89.00
48998;DHT22;34807;51.456;7.244;2023-04-23T15:27:27;18.50;88.20
48998;DHT22;34807;51.456;7.244;2023-04-23T15:29:52;18.40;88.80
48998;DHT22;34807;51.456;7.244;2023-04-23T15:32:18;18.40;87.40
48998;DHT22;34807;51.456;7.244;2023-04-23T15:34:43;18.40;88.20
48998;DHT22;34807;51.456;7.244;2023-04-23T15:37:08;18.30;88.20
48998;DHT22;34807;51.456;7.244;2023-04-23T15:39:34;18.30;88.40